Time;durP1;ratioP1;P1;durP2;ratioP2;P2;SDS_P1;SDS_P2;PMS_P1;PMS_P2;Temp;Humidity;BMP_temperature;BMP_pressure;BME280_temperature;BME280_humidity;BME280_pressure;Samples;Min_cycle;Max_cycle;Signal;HPM_P1;HPM_P2
2022/03/16 00:00:30;;;;;;;3.20;2.90;;;10.20;99.90;;;;;;5052964;28;20438;-74
2022/03/16 00:02:58;;;;;;;2.83;2.60;;;10.20;99.90;;;;;;5067226;28;20470;-76
2022/03/16 00:05:28;;;;;;;2.90;2.70;;;10.20;99.90;;;;;;5071897;28;20868;-74
2022/03/16 00:07:56;;;;;;;3.10;2.73;;;10.20;99.90;;;;;;5069805;28;20486;-74
2022/03/16 00:10:24;;;;;;;2.90;2.67;;;10.20;99.80;;;;;;5071854;28;20472;-74
2022/03/16 00:12:52;;;;;;;3.30;2.60;;;10.20;99.80;;;;;;5071152;28;20471;-76
2022/03/16 00:15:20;;;;;;;3.00;2.70;;;10.20;99.80;;;;;;5064551;28;20781;-75
2022/03/16 00:17:48;;;;;;;3.27;2.70;;;10.20;99.80;;;;;;5071390;28;20450;-75
2022/03/16 00:20:16;;;;;;;3.50;2.77;;;10.20;99.80;;;;;;5071522;28;20533;-74
2022/03/16 00:22:46;;;;;;;2.40;2.20;;;10.20;99.80;;;;;;5054813;28;20895;-77
2022/03/16 00:25:14;;;;;;;2.60;2.33;;;10.20;99.80;;;;;;5069024;28;20438;-75
2022/03/16 00:27:42;;;;;;;2.50;2.30;;;10.10;99.70;;;;;;5071384;28;20515;-75
2022/03/16 00:30:12;;;;;;;3.40;3.10;;;10.10;99.70;;;;;;5056690;28;20449;-75
2022/03/16 00:32:42;;;;;;;3.07;2.80;;;10.10;99.70;;;;;;5051232;28;20945;-75
2022/03/16 00:35:10;;;;;;;3.57;2.80;;;10.10;99.70;;;;;;5067916;28;20831;-75
2022/03/16 00:37:38;;;;;;;3.70;2.90;;;10.10;99.70;;;;;;5055115;28;20480;-73
2022/03/16 00:40:10;;;;;;;2.80;2.60;;;10.10;99.70;;;;;;5068084;28;20484;-75
2022/03/16 00:42:39;;;;;;;2.60;2.40;;;10.10;99.80;;;;;;5070901;28;20505;-75
2022/03/16 00:45:08;;;;;;;3.07;2.80;;;10.10;99.80;;;;;;5070380;28;20499;-74
2022/03/16 00:47:39;;;;;;;3.10;2.90;;;10.10;99.70;;;;;;5057810;28;20458;-74
2022/03/16 00:50:08;;;;;;;2.53;2.33;;;10.10;99.80;;;;;;5071347;28;20485;-74
2022/03/16 00:52:36;;;;;;;2.40;2.20;;;10.10;99.80;;;;;;5055216;28;20479;-75
2022/03/16 00:55:05;;;;;;;3.70;3.40;;;10.10;99.70;;;;;;5066161;28;20564;-75
2022/03/16 00:57:35;;;;;;;3.30;3.00;;;10.10;99.70;;;;;;5071655;28;20492;-75
2022/03/16 01:00:04;;;;;;;2.40;2.20;;;10.10;99.70;;;;;;5071396;28;20471;-75
2022/03/16 01:02:32;;;;;;;3.20;2.70;;;10.10;99.70;;;;;;5056836;28;20467;-75
2022/03/16 01:05:01;;;;;;;3.60;3.30;;;10.10;99.70;;;;;;5075295;28;20448;-74
2022/03/16 01:07:29;;;;;;;5.10;3.40;;;10.10;99.70;;;;;;5060929;28;21045;-73
2022/03/16 01:09:57;;;;;;;2.80;2.57;;;10.10;99.70;;;;;;5057351;28;20491;-74
2022/03/16 01:12:26;;;;;;;3.00;2.80;;;10.10;99.70;;;;;;5056959;28;20462;-75
2022/03/16 01:14:55;;;;;;;3.10;2.80;;;10.10;99.40;;;;;;5057136;28;20461;-75
2022/03/16 01:17:24;;;;;;;3.80;3.50;;;10.10;99.60;;;;;;5063041;28;20474;-74
2022/03/16 01:19:53;;;;;;;3.50;3.00;;;10.10;99.50;;;;;;5057051;28;20442;-73
2022/03/16 01:22:21;;;;;;;3.53;3.23;;;10.10;99.60;;;;;;5056046;28;20569;-74
2022/03/16 01:24:49;;;;;;;3.50;3.20;;;10.00;99.60;;;;;;5075045;28;20464;-74
2022/03/16 01:27:17;;;;;;;3.53;3.23;;;10.00;99.40;;;;;;5054629;28;20454;-74
2022/03/16 01:29:48;;;;;;;3.83;3.50;;;10.00;99.50;;;;;;5063709;28;20443;-74
2022/03/16 01:32:17;;;;;;;4.43;4.03;;;10.00;99.40;;;;;;5054541;28;20513;-75
2022/03/16 01:34:45;;;;;;;4.30;3.50;;;10.00;99.20;;;;;;5069426;28;20469;-75
2022/03/16 01:37:14;;;;;;;3.37;3.07;;;10.00;99.30;;;;;;5064804;28;20469;-76
2022/03/16 01:39:43;;;;;;;5.10;4.50;;;10.00;99.40;;;;;;5074460;28;20441;-74
2022/03/16 01:42:11;;;;;;;3.80;3.50;;;10.00;99.20;;;;;;5056409;28;20476;-73
2022/03/16 01:44:45;;;;;;;4.27;3.87;;;9.90;99.70;;;;;;5072263;28;20433;-73
2022/03/16 01:47:14;;;;;;;3.63;3.30;;;10.00;99.30;;;;;;5054083;28;20808;-74
2022/03/16 01:49:45;;;;;;;4.87;4.20;;;9.90;99.80;;;;;;5073031;28;20442;-75
2022/03/16 01:52:16;;;;;;;3.60;3.30;;;9.90;99.80;;;;;;5061628;28;20478;-74
2022/03/16 01:54:44;;;;;;;3.40;3.10;;;9.90;99.70;;;;;;5072703;28;20458;-74
2022/03/16 01:57:13;;;;;;;4.60;3.43;;;9.90;99.80;;;;;;5056442;28;20465;-77
2022/03/16 01:59:41;;;;;;;3.60;3.20;;;9.90;99.90;;;;;;5052463;28;20442;-75
2022/03/16 02:02:10;;;;;;;3.87;3.50;;;9.90;99.90;;;;;;5052789;28;20561;-76
2022/03/16 02:04:40;;;;;;;4.40;4.00;;;9.90;99.90;;;;;;5054395;28;20500;-74
2022/03/16 02:07:09;;;;;;;4.73;4.37;;;9.90;99.80;;;;;;5073660;28;20469;-75
2022/03/16 02:09:38;;;;;;;4.70;3.57;;;9.90;99.60;;;;;;5073178;28;20434;-75
2022/03/16 02:12:07;;;;;;;3.80;3.40;;;9.90;99.80;;;;;;5073186;28;20613;-74
2022/03/16 02:14:35;;;;;;;4.10;3.70;;;9.90;99.70;;;;;;5073148;28;20458;-75
2022/03/16 02:17:05;;;;;;;4.50;2.60;;;9.90;99.80;;;;;;5071549;28;20465;-75
2022/03/16 02:19:34;;;;;;;4.47;4.07;;;9.90;99.80;;;;;;5073878;28;20434;-76
2022/03/16 02:22:05;;;;;;;4.13;3.67;;;9.90;99.70;;;;;;5065812;28;20480;-76
2022/03/16 02:24:34;;;;;;;4.43;3.73;;;9.90;99.70;;;;;;5073605;28;20430;-75
2022/03/16 02:27:03;;;;;;;3.43;3.17;;;9.80;99.80;;;;;;5072978;28;20990;-75
2022/03/16 02:29:31;;;;;;;3.40;3.10;;;9.90;99.80;;;;;;5073686;28;20435;-74
2022/03/16 02:31:59;;;;;;;4.33;3.43;;;9.80;99.80;;;;;;5071384;28;20848;-75
2022/03/16 02:34:28;;;;;;;3.43;3.03;;;9.80;99.80;;;;;;5073529;28;20457;-74
2022/03/16 02:36:56;;;;;;;3.60;3.30;;;9.80;99.80;;;;;;5063217;28;20517;-75
2022/03/16 02:39:27;;;;;;;3.50;3.20;;;9.80;99.80;;;;;;5069718;28;20473;-76
2022/03/16 02:41:56;;;;;;;3.30;2.87;;;9.90;99.80;;;;;;5072851;28;20473;-74
2022/03/16 02:44:25;;;;;;;3.93;3.47;;;9.80;99.60;;;;;;5073178;28;20829;-75
2022/03/16 02:46:53;;;;;;;4.20;3.30;;;9.80;99.60;;;;;;5064378;28;20986;-75
2022/03/16 02:49:22;;;;;;;3.83;3.43;;;9.80;99.70;;;;;;5055330;28;20430;-75
2022/03/16 02:51:50;;;;;;;3.80;3.50;;;9.80;99.60;;;;;;5063726;28;20525;-74
2022/03/16 02:54:18;;;;;;;3.70;3.20;;;9.80;99.70;;;;;;5053303;28;20491;-75
2022/03/16 02:56:47;;;;;;;4.93;4.00;;;9.80;99.50;;;;;;5069824;28;20528;-73
2022/03/16 02:59:17;;;;;;;3.63;3.30;;;9.80;99.60;;;;;;5064993;28;20872;-75
2022/03/16 03:01:45;;;;;;;5.03;4.53;;;9.80;99.70;;;;;;5052689;28;20467;-76
2022/03/16 03:04:13;;;;;;;3.50;3.20;;;9.80;99.50;;;;;;5067094;28;20973;-76
2022/03/16 03:06:41;;;;;;;4.37;3.97;;;9.80;99.50;;;;;;5071660;28;20905;-76
2022/03/16 03:09:09;;;;;;;3.87;3.57;;;9.80;99.60;;;;;;5072940;28;20468;-76
2022/03/16 03:11:37;;;;;;;5.10;4.43;;;9.80;99.50;;;;;;5072657;28;20533;-76
2022/03/16 03:14:05;;;;;;;4.17;3.63;;;9.80;99.50;;;;;;5072402;28;20488;-74
2022/03/16 03:16:35;;;;;;;4.70;3.90;;;9.70;99.40;;;;;;5063027;28;20590;-73
2022/03/16 03:19:03;;;;;;;4.67;4.27;;;9.70;99.40;;;;;;5052806;28;20523;-75
2022/03/16 03:21:31;;;;;;;6.07;4.70;;;9.70;99.30;;;;;;5051451;28;20486;-74
2022/03/16 03:23:59;;;;;;;5.07;4.57;;;9.70;99.10;;;;;;5062965;28;20427;-74
2022/03/16 03:26:32;;;;;;;3.47;3.17;;;9.70;99.30;;;;;;5072353;28;20472;-74
2022/03/16 03:29:00;;;;;;;4.57;3.67;;;9.70;99.30;;;;;;5072213;28;20855;-74
2022/03/16 03:31:28;;;;;;;4.37;3.97;;;9.70;99.50;;;;;;5072278;28;20520;-75
2022/03/16 03:33:57;;;;;;;3.63;3.30;;;9.70;99.40;;;;;;5072250;28;20449;-75
2022/03/16 03:36:26;;;;;;;5.57;5.07;;;9.70;99.40;;;;;;5066665;28;20473;-76
2022/03/16 03:38:54;;;;;;;5.13;4.63;;;9.70;99.40;;;;;;5070484;28;20457;-75
2022/03/16 03:41:22;;;;;;;4.97;4.47;;;9.70;99.30;;;;;;5072036;28;20527;-75
2022/03/16 03:43:50;;;;;;;7.07;6.30;;;9.70;99.30;;;;;;5071750;28;20430;-75
2022/03/16 03:46:18;;;;;;;5.53;5.03;;;9.70;99.30;;;;;;5066865;28;20473;-75
2022/03/16 03:48:46;;;;;;;6.63;5.07;;;9.60;99.20;;;;;;5069353;28;20445;-75
2022/03/16 03:51:15;;;;;;;6.10;5.50;;;9.60;99.10;;;;;;5067816;28;20867;-74
2022/03/16 03:53:44;;;;;;;6.80;5.40;;;9.60;99.20;;;;;;5063278;28;20444;-75
2022/03/16 03:56:12;;;;;;;7.80;6.60;;;9.60;99.20;;;;;;5071828;28;20492;-74
2022/03/16 03:58:40;;;;;;;6.13;5.53;;;9.60;99.00;;;;;;5071745;28;20508;-75
2022/03/16 04:01:08;;;;;;;6.30;5.67;;;9.60;99.30;;;;;;5055739;28;20516;-75
2022/03/16 04:03:36;;;;;;;4.43;4.03;;;9.60;99.30;;;;;;5066134;28;20442;-76
2022/03/16 04:06:04;;;;;;;5.40;4.20;;;9.60;99.40;;;;;;5061917;28;20473;-75
2022/03/16 04:08:33;;;;;;;5.83;5.23;;;9.60;99.40;;;;;;5071779;28;20530;-75
2022/03/16 04:11:02;;;;;;;4.93;4.53;;;9.50;99.20;;;;;;5071071;28;20457;-75
2022/03/16 04:13:30;;;;;;;5.17;4.67;;;9.50;99.20;;;;;;5071838;28;20449;-74
2022/03/16 04:15:58;;;;;;;5.03;4.20;;;9.50;99.70;;;;;;5065180;28;20864;-75
2022/03/16 04:18:27;;;;;;;5.17;4.67;;;9.50;99.20;;;;;;5067365;28;20434;-75
2022/03/16 04:20:56;;;;;;;4.20;3.80;;;9.50;98.90;;;;;;5069688;28;20988;-75
2022/03/16 04:23:24;;;;;;;4.20;3.80;;;9.50;99.10;;;;;;5065992;28;20503;-75
2022/03/16 04:25:53;;;;;;;7.50;4.40;;;9.50;99.10;;;;;;5059812;28;20487;-76
2022/03/16 04:28:21;;;;;;;4.50;4.10;;;9.50;99.10;;;;;;5066272;28;20851;-76
2022/03/16 04:30:49;;;;;;;5.87;5.23;;;9.50;99.10;;;;;;5057494;28;20597;-75
2022/03/16 04:33:17;;;;;;;5.10;4.70;;;9.40;98.80;;;;;;5064635;28;20525;-75
2022/03/16 04:35:46;;;;;;;4.43;4.03;;;9.40;99.00;;;;;;5052448;28;20485;-75
2022/03/16 04:38:14;;;;;;;4.97;4.57;;;9.40;99.00;;;;;;5064623;28;20464;-74
2022/03/16 04:40:42;;;;;;;3.90;3.60;;;9.40;98.90;;;;;;5071313;28;20461;-77
2022/03/16 04:43:11;;;;;;;6.53;5.60;;;9.40;99.00;;;;;;5071389;28;20466;-75
2022/03/16 04:45:41;;;;;;;5.60;5.07;;;9.40;98.50;;;;;;5063680;28;20199;-75
2022/03/16 04:48:11;;;;;;;4.32;3.92;;;9.30;98.90;;;;;;5064006;28;20462;-76
2022/03/16 04:50:40;;;;;;;5.65;5.10;;;9.30;98.90;;;;;;5071501;28;20229;-75
2022/03/16 04:53:08;;;;;;;5.22;4.47;;;9.30;98.70;;;;;;5070994;28;20265;-76
2022/03/16 04:55:36;;;;;;;5.60;4.87;;;9.30;98.90;;;;;;5071238;28;20235;-75
2022/03/16 04:58:05;;;;;;;4.80;4.40;;;9.30;98.90;;;;;;5068717;28;20464;-75
2022/03/16 05:00:35;;;;;;;4.03;3.73;;;9.30;99.00;;;;;;5065450;28;20447;-75
2022/03/16 05:03:04;;;;;;;4.30;3.90;;;9.30;99.10;;;;;;5068469;28;20530;-75
2022/03/16 05:05:33;;;;;;;5.20;4.70;;;9.30;99.10;;;;;;5071336;28;20425;-75
2022/03/16 05:08:01;;;;;;;5.25;4.75;;;9.30;99.10;;;;;;5068480;28;20888;-75
2022/03/16 05:10:29;;;;;;;4.67;4.30;;;9.30;98.90;;;;;;5071301;28;20194;-74
2022/03/16 05:12:57;;;;;;;4.63;4.23;;;9.30;99.10;;;;;;5070486;28;20472;-75
2022/03/16 05:15:25;;;;;;;5.20;4.40;;;9.30;99.00;;;;;;5064527;28;20925;-75
2022/03/16 05:17:55;;;;;;;5.77;5.27;;;9.30;98.90;;;;;;5068541;28;20224;-76
2022/03/16 05:20:23;;;;;;;4.65;4.20;;;9.30;98.90;;;;;;5071539;28;20437;-75
2022/03/16 05:22:53;;;;;;;5.25;4.75;;;9.30;99.00;;;;;;5070302;28;20680;-75
2022/03/16 05:25:23;;;;;;;4.33;3.93;;;9.30;99.10;;;;;;5071033;28;20242;-75
2022/03/16 05:27:51;;;;;;;5.18;4.68;;;9.30;99.00;;;;;;5069620;28;20485;-75
2022/03/16 05:30:22;;;;;;;5.00;4.60;;;9.20;99.00;;;;;;5063933;28;20203;-75
2022/03/16 05:32:51;;;;;;;5.28;4.70;;;9.20;98.90;;;;;;5070297;28;20479;-74
2022/03/16 05:35:21;;;;;;;4.50;4.10;;;9.20;99.00;;;;;;5070838;28;20194;-74
2022/03/16 05:37:50;;;;;;;5.95;4.47;;;9.20;99.00;;;;;;5069063;28;20224;-75
2022/03/16 05:40:18;;;;;;;4.65;4.20;;;9.20;99.00;;;;;;5070934;28;20238;-74
2022/03/16 05:42:46;;;;;;;4.53;4.10;;;9.20;99.20;;;;;;5070329;28;20250;-75
2022/03/16 05:45:18;;;;;;;4.53;4.10;;;9.20;99.10;;;;;;5067800;28;20202;-75
2022/03/16 05:47:46;;;;;;;5.35;4.85;;;9.20;99.20;;;;;;5065744;28;20260;-76
2022/03/16 05:50:14;;;;;;;5.50;4.95;;;9.20;99.20;;;;;;5074320;28;20188;-74
2022/03/16 05:52:46;;;;;;;4.35;4.03;;;9.20;99.20;;;;;;5058236;28;20754;-75
2022/03/16 05:55:14;;;;;;;4.10;3.70;;;9.20;99.20;;;;;;5060068;28;20195;-75
2022/03/16 05:57:44;;;;;;;5.35;4.85;;;9.20;99.20;;;;;;5073732;28;20696;-75
2022/03/16 06:00:14;;;;;;;5.07;4.60;;;9.20;99.30;;;;;;5068631;28;20192;-75
2022/03/16 06:02:43;;;;;;;5.90;5.30;;;9.20;99.30;;;;;;5073744;28;20833;-74
2022/03/16 06:05:12;;;;;;;6.65;5.30;;;9.20;99.20;;;;;;5073786;28;20871;-74
2022/03/16 06:07:40;;;;;;;5.00;4.50;;;9.20;99.30;;;;;;5057726;28;20231;-74
2022/03/16 06:10:12;;;;;;;4.55;4.15;;;9.20;99.30;;;;;;5060444;28;20426;-75
2022/03/16 06:12:54;;;;;;;6.40;5.80;;;9.20;99.30;;;;;;5073664;28;20646;-75
2022/03/16 06:15:22;;;;;;;5.77;4.90;;;9.20;99.30;;;;;;5062280;28;20453;-74
2022/03/16 06:17:51;;;;;;;6.60;5.90;;;9.20;99.20;;;;;;5069833;28;20470;-75
2022/03/16 06:20:19;;;;;;;5.67;5.03;;;9.20;99.20;;;;;;5073463;28;20712;-75
2022/03/16 06:22:47;;;;;;;6.28;5.68;;;9.10;99.20;;;;;;5072133;28;20511;-74
2022/03/16 06:25:17;;;;;;;5.70;5.10;;;9.10;99.30;;;;;;5073693;28;20213;-75
2022/03/16 06:27:45;;;;;;;5.27;4.77;;;9.10;99.40;;;;;;5070053;28;20873;-75
2022/03/16 06:30:13;;;;;;;5.87;5.20;;;9.20;99.40;;;;;;5073798;28;20440;-74
2022/03/16 06:32:44;;;;;;;5.18;4.63;;;9.10;99.40;;;;;;5071289;28;20472;-75
2022/03/16 06:35:13;;;;;;;6.40;5.03;;;9.10;99.40;;;;;;5073634;28;20189;-75
2022/03/16 06:37:41;;;;;;;4.75;4.35;;;9.10;99.40;;;;;;5072996;28;20507;-73
2022/03/16 06:40:10;;;;;;;6.00;5.00;;;9.10;99.40;;;;;;5073608;28;20176;-75
2022/03/16 06:42:50;;;;;;;5.80;5.05;;;9.10;99.40;;;;;;5073540;28;20280;-75
2022/03/16 06:45:19;;;;;;;6.00;5.05;;;9.10;99.40;;;;;;5072708;28;20661;-75
2022/03/16 06:47:48;;;;;;;5.20;4.47;;;9.10;99.40;;;;;;5071608;28;20217;-75
2022/03/16 06:50:16;;;;;;;5.28;4.78;;;9.10;99.50;;;;;;5073714;28;20484;-75
2022/03/16 06:52:44;;;;;;;5.95;4.65;;;9.10;99.40;;;;;;5072592;28;20230;-75
2022/03/16 06:55:12;;;;;;;5.95;5.35;;;9.10;99.40;;;;;;5067666;28;20188;-75
2022/03/16 06:57:40;;;;;;;7.15;5.63;;;9.10;99.40;;;;;;5067213;28;20217;-73
2022/03/16 07:00:12;;;;;;;5.80;5.20;;;9.10;99.40;;;;;;5055170;28;20198;-77
2022/03/16 07:02:55;;;;;;;5.60;5.10;;;9.10;99.40;;;;;;5069904;28;20227;-74
2022/03/16 07:05:27;;;;;;;5.53;4.95;;;9.10;99.50;;;;;;5072690;28;20204;-75
2022/03/16 07:07:56;;;;;;;7.97;5.93;;;9.10;99.60;;;;;;5054726;28;20213;-75
2022/03/16 07:10:25;;;;;;;6.65;5.75;;;9.10;99.60;;;;;;5066734;28;20221;-77
2022/03/16 07:12:53;;;;;;;6.50;5.80;;;9.10;99.60;;;;;;5070532;28;20576;-74
2022/03/16 07:15:23;;;;;;;8.35;7.25;;;9.10;99.70;;;;;;5069394;28;20187;-75
2022/03/16 07:17:52;;;;;;;6.93;5.75;;;9.10;99.70;;;;;;5072179;28;20218;-74
2022/03/16 07:20:22;;;;;;;7.53;5.93;;;9.10;99.80;;;;;;5072803;28;20205;-75
2022/03/16 07:23:02;;;;;;;6.25;5.60;;;9.10;99.90;;;;;;5061552;28;20214;-75
2022/03/16 07:25:36;;;;;;;5.97;5.32;;;9.00;99.80;;;;;;5072825;28;20585;-76
2022/03/16 07:28:04;;;;;;;6.15;5.55;;;9.10;99.90;;;;;;5071614;28;20678;-74
2022/03/16 07:30:35;;;;;;;6.35;5.70;;;9.10;99.90;;;;;;5072991;28;20182;-75
2022/03/16 07:33:03;;;;;;;6.30;5.30;;;9.00;99.90;;;;;;5061928;28;20239;-77
2022/03/16 07:35:32;;;;;;;7.75;6.95;;;9.00;99.90;;;;;;5072482;28;20194;-75
2022/03/16 07:38:01;;;;;;;7.05;5.90;;;9.00;99.90;;;;;;5069528;28;20256;-77
2022/03/16 07:40:31;;;;;;;8.00;6.35;;;9.00;99.90;;;;;;5072455;28;20547;-74
2022/03/16 07:43:00;;;;;;;7.22;6.03;;;9.00;99.90;;;;;;5071247;28;20230;-76
2022/03/16 07:45:30;;;;;;;7.22;6.28;;;9.00;99.90;;;;;;5069538;28;20273;-76
2022/03/16 07:47:59;;;;;;;6.53;5.32;;;9.00;99.90;;;;;;5053240;28;20223;-76
2022/03/16 07:50:28;;;;;;;7.97;7.13;;;9.10;99.90;;;;;;5072447;28;20253;-75
2022/03/16 07:52:56;;;;;;;7.72;6.75;;;9.10;99.90;;;;;;5054527;28;20229;-75
2022/03/16 07:55:27;;;;;;;6.93;5.32;;;9.10;99.90;;;;;;5054805;28;20204;-75
2022/03/16 07:57:55;;;;;;;6.70;6.03;;;9.10;99.90;;;;;;5070649;28;20229;-74
2022/03/16 08:00:24;;;;;;;6.35;5.43;;;9.10;99.90;;;;;;5071324;28;20245;-75
2022/03/16 08:02:59;;;;;;;7.70;6.30;;;9.10;99.90;;;;;;5071515;28;20235;-74
2022/03/16 08:05:29;;;;;;;6.93;6.22;;;9.10;99.90;;;;;;5071203;28;20218;-75
2022/03/16 08:07:57;;;;;;;8.45;5.72;;;9.10;99.80;;;;;;5068534;28;20218;-75
2022/03/16 08:10:25;;;;;;;8.50;7.03;;;9.10;99.90;;;;;;5071762;28;20192;-75
2022/03/16 08:12:53;;;;;;;8.80;6.55;;;9.10;99.90;;;;;;5071358;28;20591;-75
2022/03/16 08:15:22;;;;;;;7.38;5.60;;;9.10;99.90;;;;;;5070235;28;20219;-74
2022/03/16 08:17:50;;;;;;;8.35;6.65;;;9.10;99.90;;;;;;5070161;28;20226;-75
2022/03/16 08:20:18;;;;;;;7.60;6.05;;;9.10;99.90;;;;;;5071506;28;20193;-73
2022/03/16 08:22:51;;;;;;;6.38;5.72;;;9.10;99.90;;;;;;5066686;28;20629;-74
2022/03/16 08:25:19;;;;;;;7.90;6.47;;;9.10;99.90;;;;;;5071443;28;20221;-75
2022/03/16 08:27:48;;;;;;;7.57;5.82;;;9.10;99.90;;;;;;5066894;28;20312;-74
2022/03/16 08:30:17;;;;;;;8.20;5.50;;;9.20;99.90;;;;;;5071280;28;20220;-76
2022/03/16 08:32:45;;;;;;;7.65;5.80;;;9.10;99.90;;;;;;5066960;28;20504;-75
2022/03/16 08:35:13;;;;;;;8.30;5.80;;;9.10;99.90;;;;;;5071287;28;20176;-76
2022/03/16 08:37:41;;;;;;;7.60;5.73;;;9.20;99.90;;;;;;5068587;28;20477;-75
2022/03/16 08:40:11;;;;;;;6.63;5.13;;;9.20;99.90;;;;;;5071894;28;20429;-74
2022/03/16 08:42:39;;;;;;;7.22;6.03;;;9.20;99.90;;;;;;5070637;28;20219;-74
2022/03/16 08:45:08;;;;;;;6.55;5.53;;;9.20;99.90;;;;;;5071553;28;20587;-75
2022/03/16 08:47:37;;;;;;;6.43;5.83;;;9.20;99.90;;;;;;5062042;28;20214;-75
2022/03/16 08:50:06;;;;;;;8.73;6.28;;;9.20;99.90;;;;;;5071203;28;20529;-75
2022/03/16 08:52:34;;;;;;;6.18;5.30;;;9.20;99.90;;;;;;5054485;28;20228;-75
2022/03/16 08:55:05;;;;;;;5.85;5.03;;;9.20;99.90;;;;;;5069764;28;20658;-74
2022/03/16 08:57:38;;;;;;;7.20;5.40;;;9.20;99.90;;;;;;5070663;28;20223;-75
2022/03/16 09:00:08;;;;;;;6.30;5.23;;;9.20;99.90;;;;;;5071858;28;20445;-74
2022/03/16 09:02:36;;;;;;;6.35;4.97;;;9.20;99.90;;;;;;5070551;28;20819;-75
2022/03/16 09:05:05;;;;;;;6.37;5.37;;;9.20;99.90;;;;;;5071388;28;20282;-76
2022/03/16 09:07:34;;;;;;;7.67;5.50;;;9.20;99.90;;;;;;5059651;28;20468;-76
2022/03/16 09:10:02;;;;;;;6.83;4.93;;;9.20;99.90;;;;;;5071536;28;20802;-75
2022/03/16 09:12:30;;;;;;;6.50;5.25;;;9.20;99.90;;;;;;5070485;28;20890;-74
2022/03/16 09:15:03;;;;;;;6.47;5.30;;;9.20;99.90;;;;;;5059214;28;20198;-76
2022/03/16 09:17:33;;;;;;;6.40;5.37;;;9.20;99.90;;;;;;5066443;28;20983;-75
2022/03/16 09:20:01;;;;;;;7.60;5.95;;;9.20;99.90;;;;;;5074907;28;20800;-77
2022/03/16 09:22:29;;;;;;;6.63;5.03;;;9.20;99.90;;;;;;5061998;28;20224;-75
2022/03/16 09:24:57;;;;;;;7.07;6.37;;;9.20;99.90;;;;;;5066961;28;20451;-75
2022/03/16 09:27:26;;;;;;;7.40;5.43;;;9.20;99.90;;;;;;5061220;28;20462;-75
2022/03/16 09:29:56;;;;;;;7.53;6.30;;;9.20;99.90;;;;;;5074083;28;20191;-75
2022/03/16 09:32:27;;;;;;;7.28;5.80;;;9.20;99.90;;;;;;5073477;28;20557;-75
2022/03/16 09:34:55;;;;;;;6.32;5.35;;;9.20;99.90;;;;;;5070909;28;20664;-75
2022/03/16 09:37:23;;;;;;;6.80;5.70;;;9.20;99.90;;;;;;5061327;28;20703;-76
2022/03/16 09:39:51;;;;;;;6.77;6.17;;;9.20;99.90;;;;;;5058923;28;20457;-75
2022/03/16 09:42:20;;;;;;;6.03;5.43;;;9.20;99.90;;;;;;5074026;28;20855;-74
2022/03/16 09:44:53;;;;;;;7.55;6.70;;;9.20;99.90;;;;;;5074571;28;20195;-74
2022/03/16 09:47:22;;;;;;;6.83;5.37;;;9.20;99.90;;;;;;5061998;28;20216;-74
2022/03/16 09:49:53;;;;;;;6.10;5.13;;;9.20;99.90;;;;;;5074247;28;20538;-75
2022/03/16 09:52:24;;;;;;;7.53;5.95;;;9.20;99.90;;;;;;5059230;28;20814;-75
2022/03/16 09:54:53;;;;;;;6.13;5.00;;;9.20;99.90;;;;;;5074134;28;20198;-76
2022/03/16 09:57:21;;;;;;;6.93;5.40;;;9.20;99.90;;;;;;5072433;28;20463;-73
2022/03/16 09:59:51;;;;;;;9.30;7.67;;;9.20;99.90;;;;;;5055258;28;20555;-75
2022/03/16 10:02:26;;;;;;;9.47;7.60;;;9.30;99.90;;;;;;5073423;28;20461;-75
2022/03/16 10:04:56;;;;;;;10.20;8.30;;;9.30;99.90;;;;;;5072272;28;20438;-76
2022/03/16 10:07:34;;;;;;;14.73;8.20;;;9.40;99.90;;;;;;5068185;28;20470;-75
2022/03/16 10:15:31;;;;;;;10.43;8.13;;;9.40;99.90;;;;;;5073488;28;20825;-76
2022/03/16 10:18:02;;;;;;;9.93;7.60;;;9.40;99.90;;;;;;5073218;28;20472;-75
2022/03/16 10:20:33;;;;;;;10.43;7.80;;;9.40;99.90;;;;;;5056281;28;20418;-75
2022/03/16 10:23:06;;;;;;;8.90;6.97;;;9.40;99.90;;;;;;5069661;28;20510;-74
2022/03/16 10:25:37;;;;;;;9.90;8.20;;;9.30;99.90;;;;;;5073740;28;20434;-75
2022/03/16 10:28:10;;;;;;;8.27;7.27;;;9.30;99.90;;;;;;5072119;28;20468;-76
2022/03/16 10:30:40;;;;;;;11.10;7.23;;;9.30;99.90;;;;;;5073295;28;20441;-76
2022/03/16 10:33:08;;;;;;;9.33;7.23;;;9.30;99.90;;;;;;5073159;28;20524;-74
2022/03/16 10:35:55;;;;;;;8.43;7.40;;;9.30;99.90;;;;;;5073324;28;20434;-75
2022/03/16 10:38:24;;;;;;;8.47;7.40;;;9.30;99.90;;;;;;5070338;28;20462;-74
2022/03/16 10:40:56;;;;;;;7.87;7.00;;;9.30;99.90;;;;;;5073295;28;20418;-75
2022/03/16 10:49:05;;;;;;;10.17;7.60;;;9.30;99.90;;;;;;5073476;28;20419;-75
2022/03/16 10:51:34;;;;;;;8.07;6.40;;;9.20;99.90;;;;;;5072475;28;20457;-73
2022/03/16 10:54:25;;;;;;;8.67;7.00;;;9.20;99.90;;;;;;5065654;28;20438;-75
2022/03/16 10:56:55;;;;;;;6.00;5.40;;;9.30;99.90;;;;;;5072305;28;20541;-75
2022/03/16 10:59:29;;;;;;;7.87;5.80;;;9.20;99.90;;;;;;5072129;28;20456;-74
2022/03/16 11:02:02;;;;;;;7.90;7.10;;;9.20;99.90;;;;;;5074470;28;20490;-73
2022/03/16 11:04:33;;;;;;;6.60;5.63;;;9.20;99.90;;;;;;5072761;28;20484;-76
2022/03/16 11:07:05;;;;;;;8.00;6.80;;;9.20;99.90;;;;;;5062580;28;20594;-75
2022/03/16 11:09:35;;;;;;;7.70;6.57;;;9.20;99.90;;;;;;5070259;28;20439;-75
2022/03/16 11:15:11;;;;;;;8.30;6.67;;;9.20;99.90;;;;;;5037217;28;20934;-74
2022/03/16 11:17:41;;;;;;;7.43;5.97;;;9.20;99.90;;;;;;5066481;28;20525;-73
2022/03/16 11:20:10;;;;;;;6.70;5.17;;;9.20;99.90;;;;;;5071978;28;20825;-73
2022/03/16 11:24:15;;;;;;;7.83;5.87;;;9.20;99.90;;;;;;5071051;28;20473;-75
2022/03/16 11:25:50;;;;;;;6.27;5.60;;;9.20;99.90;;;;;;5052568;28;20434;-74
2022/03/16 11:28:31;;;;;;;7.50;5.80;;;9.20;99.90;;;;;;5060325;28;21005;-75
2022/03/16 11:31:01;;;;;;;6.67;5.20;;;9.20;99.90;;;;;;5050622;28;20441;-74
2022/03/16 11:33:29;;;;;;;8.30;5.77;;;9.20;99.90;;;;;;5071242;28;20432;-75
2022/03/16 11:35:57;;;;;;;7.97;6.53;;;9.20;99.90;;;;;;5070251;28;20908;-76
2022/03/16 11:38:34;;;;;;;8.40;6.73;;;9.20;99.90;;;;;;5067098;28;20916;-75
2022/03/16 11:41:08;;;;;;;6.40;5.30;;;9.20;99.90;;;;;;5072042;28;20420;-75
2022/03/16 11:43:36;;;;;;;7.87;5.63;;;9.20;99.90;;;;;;5071737;28;20493;-74
2022/03/16 11:46:06;;;;;;;7.27;6.30;;;9.20;99.90;;;;;;5071830;28;21198;-74
2022/03/16 11:48:45;;;;;;;7.47;5.70;;;9.20;99.90;;;;;;5084865;28;20444;-75
2022/03/16 11:51:21;;;;;;;6.33;4.67;;;9.20;99.90;;;;;;5059553;28;20492;-73
2022/03/16 11:54:13;;;;;;;5.13;4.53;;;9.20;99.90;;;;;;5072251;28;20430;-76
2022/03/16 11:56:47;;;;;;;6.87;5.50;;;9.20;99.90;;;;;;5069663;28;20229;-75
2022/03/16 11:59:45;;;;;;;6.20;4.90;;;9.20;99.90;;;;;;5067932;28;20463;-74
2022/03/16 12:02:20;;;;;;;5.40;4.90;;;9.20;99.90;;;;;;5070684;28;20471;-75
2022/03/16 12:04:50;;;;;;;5.87;5.23;;;9.20;99.90;;;;;;5071392;28;20850;-75
2022/03/16 12:07:20;;;;;;;7.20;5.73;;;9.20;99.90;;;;;;5049832;28;20488;-74
2022/03/16 12:09:51;;;;;;;5.35;4.85;;;9.20;99.90;;;;;;5071514;28;20835;-75
2022/03/16 12:15:26;;;;;;;5.87;5.10;;;9.20;99.90;;;;;;5068150;28;20456;-75
2022/03/16 12:18:23;;;;;;;5.90;5.30;;;9.20;99.90;;;;;;5068773;28;20848;-75
2022/03/16 12:20:58;;;;;;;5.93;4.80;;;9.20;99.90;;;;;;5067436;28;20523;-69
2022/03/16 12:23:52;;;;;;;6.63;4.87;;;9.20;99.90;;;;;;5058936;28;20845;-68
2022/03/16 12:26:24;;;;;;;6.57;5.23;;;9.20;99.90;;;;;;5060131;28;20461;-69
2022/03/16 12:29:01;;;;;;;8.93;5.77;;;9.20;99.90;;;;;;5071091;28;20441;-69
2022/03/16 12:31:30;;;;;;;6.23;5.07;;;9.20;99.90;;;;;;5069393;28;20502;-68
2022/03/16 12:33:59;;;;;;;6.03;4.90;;;9.20;99.90;;;;;;5070426;28;20527;-69
2022/03/16 12:36:28;;;;;;;6.20;5.00;;;9.20;99.90;;;;;;5065095;28;20470;-69
2022/03/16 12:38:58;;;;;;;5.00;4.50;;;9.20;99.90;;;;;;5066373;28;20421;-68
2022/03/16 12:44:18;;;;;;;4.97;3.92;;;9.20;99.90;;;;;;5052478;28;20221;-68
2022/03/16 12:46:53;;;;;;;4.80;4.30;;;9.20;99.90;;;;;;5051439;28;20223;-67
2022/03/16 12:49:23;;;;;;;4.97;4.47;;;9.20;99.90;;;;;;5070585;28;20529;-69
2022/03/16 12:51:53;;;;;;;5.30;4.43;;;9.20;99.90;;;;;;5069776;28;20485;-70
2022/03/16 12:54:28;;;;;;;5.83;4.50;;;9.20;99.90;;;;;;5073536;28;20575;-70
2022/03/16 12:57:02;;;;;;;5.10;4.37;;;9.30;99.90;;;;;;5073589;28;20846;-68
2022/03/16 12:59:32;;;;;;;5.33;4.80;;;9.20;99.90;;;;;;5071285;28;20439;-70
2022/03/16 13:02:03;;;;;;;5.70;5.07;;;9.20;99.90;;;;;;5072062;28;20997;-70
2022/03/16 13:04:31;;;;;;;6.70;5.30;;;9.20;99.90;;;;;;5064689;28;20453;-69
2022/03/16 13:07:01;;;;;;;4.88;4.30;;;9.20;99.90;;;;;;5064424;28;20544;-70
2022/03/16 13:09:30;;;;;;;5.35;4.50;;;9.20;99.90;;;;;;5068553;28;20202;-68
2022/03/16 13:12:04;;;;;;;4.97;4.47;;;9.20;99.90;;;;;;5074167;28;20230;-68
2022/03/16 13:14:33;;;;;;;5.27;4.77;;;9.20;99.90;;;;;;5073984;28;20452;-68
2022/03/16 13:17:03;;;;;;;5.50;4.22;;;9.20;99.90;;;;;;5074336;28;20478;-67
2022/03/16 13:19:32;;;;;;;7.13;4.80;;;9.20;99.90;;;;;;5074705;28;20188;-68
2022/03/16 13:22:05;;;;;;;4.50;3.60;;;9.30;99.90;;;;;;5067152;28;21123;-68
2022/03/16 13:24:36;;;;;;;5.30;4.17;;;9.20;99.90;;;;;;5074228;28;20430;-69
2022/03/16 13:27:07;;;;;;;6.13;4.93;;;9.30;99.90;;;;;;5074109;28;21032;-69
2022/03/16 13:29:38;;;;;;;4.93;4.43;;;9.30;99.90;;;;;;5056804;28;20474;-68